»·PEaware :: AAL6960 KLAS-KDEN

AAL6960 :: KLAS-KDEN

FLIGHT INFORMATION

Flight Status: Arrived
Operator:
American Airlines
More flights by this operator :: More flights under this callsign
Pilot: Sergei F. (8485)
Aircraft: BOEING 737-300
(B733)
More flights by this aircraft type
Origin: KLAS McCarran Intl
United States
Destination: KDEN Denver Intl
United States
More flights between these airports :: More routes between these airports
Route: +STAAV8 DVC WOLLF CREDE3
File this flight plan on PilotEdge
Remarks:
Altitude:
(Current/Filed)
280ft
Speed:
(Current/Filed)
300kts
Departed: 02-Dec-17 04:15 PM
Arrived: 02-Dec-17 05:44 PM
Distance/Time
Traveled:
544nm/1:29
Distance/Time
To Go:
Arrived

Flight Plot

Page will automatically refresh every two minutes.

Flight plan parsing failed; only flown route is shown


Map Options




Map Legend


Flown Route
Filed Route
Departure Airport
Arrival Airport
Navaid (VOR, NDB)
Fix

Horizontal Profiles

Position Reports

Time Latitude Longitude Heading Altitude Ground
Speed
02-Dec-17 15:50 36.079922 -115.147028 61 2095ft 0kts
02-Dec-17 15:51 36.079922 -115.147028 61 2095ft 0kts
02-Dec-17 15:52 36.079922 -115.147028 61 2095ft 0kts
02-Dec-17 15:53 36.079922 -115.147028 61 2095ft 0kts
02-Dec-17 15:54 36.079922 -115.147028 61 2095ft 0kts
02-Dec-17 15:55 36.079922 -115.147028 61 2095ft 0kts
02-Dec-17 15:56 36.079922 -115.147028 61 2095ft 0kts
02-Dec-17 15:57 36.079922 -115.147028 61 2095ft 0kts
02-Dec-17 15:58 36.079922 -115.147028 61 2095ft 0kts
02-Dec-17 15:59 36.079922 -115.147028 61 2095ft 0kts
02-Dec-17 16:00 36.079921 -115.147028 61 2095ft 0kts
02-Dec-17 16:01 36.079814 -115.147273 61 2097ft 0kts
02-Dec-17 16:02 36.079684 -115.147566 60 2098ft 0kts
02-Dec-17 16:03 36.079607 -115.147731 136 2099ft 0kts
02-Dec-17 16:04 36.079102 -115.147405 155 2100ft 3kts
02-Dec-17 16:05 36.079077 -115.147391 155 2100ft 0kts
02-Dec-17 16:06 36.078902 -115.147291 155 2100ft 4kts
02-Dec-17 16:07 36.078453 -115.146173 94 2098ft 5kts
02-Dec-17 16:08 36.078351 -115.144724 94 2093ft 9kts
02-Dec-17 16:09 36.078265 -115.141065 90 2082ft 13kts
02-Dec-17 16:10 36.078269 -115.135616 90 2065ft 15kts
02-Dec-17 16:11 36.078274 -115.130320 89 2049ft 17kts
02-Dec-17 16:12 36.078280 -115.125337 89 2039ft 15kts
02-Dec-17 16:13 36.078277 -115.123006 93 2035ft 3kts
02-Dec-17 16:14 36.078015 -115.122311 127 2035ft 1kts
02-Dec-17 16:15 36.077520 -115.121568 132 2036ft 4kts
02-Dec-17 16:16 36.077426 -115.121455 139 2036ft 0kts
02-Dec-17 16:17 36.077426 -115.121455 139 2036ft 0kts
02-Dec-17 16:18 36.077398 -115.121426 141 2036ft 1kts
02-Dec-17 16:19 36.076442 -115.122044 270 2038ft 7kts
02-Dec-17 16:20 36.076456 -115.146900 270 2213ft 158kts
02-Dec-17 16:21 36.075448 -115.203288 270 4327ft 171kts
02-Dec-17 16:22 36.076935 -115.273063 270 5843ft 231kts
02-Dec-17 16:23 36.127429 -115.304273 13 8088ft 264kts
02-Dec-17 16:24 36.179020 -115.243627 71 10264ft 292kts
02-Dec-17 16:25 36.197034 -115.133288 92 11600ft 357kts
02-Dec-17 16:26 36.198292 -115.008314 91 14498ft 372kts
02-Dec-17 16:27 36.199672 -114.879168 91 17199ft 387kts
02-Dec-17 16:28 36.200156 -114.743460 92 19613ft 404kts
02-Dec-17 16:29 36.198524 -114.602733 92 21837ft 419kts
02-Dec-17 16:30 36.196858 -114.456465 92 23856ft 434kts
02-Dec-17 16:31 36.194982 -114.307291 92 25637ft 449kts
02-Dec-17 16:32 36.204430 -114.153303 82 27038ft 456kts
02-Dec-17 16:33 36.222633 -114.004241 82 27061ft 436kts
02-Dec-17 16:34 36.240378 -113.854439 82 28328ft 450kts
02-Dec-17 16:35 36.258095 -113.703041 82 29116ft 448kts
02-Dec-17 16:36 36.275569 -113.551970 82 29091ft 446kts
02-Dec-17 16:37 36.292914 -113.400299 82 29116ft 447kts
02-Dec-17 16:38 36.309911 -113.249725 83 29158ft 448kts
02-Dec-17 16:39 36.355139 -113.108783 64 29159ft 448kts
02-Dec-17 16:40 36.407119 -112.969981 65 29158ft 447kts
02-Dec-17 16:41 36.458337 -112.831789 65 29157ft 444kts
02-Dec-17 16:42 36.509905 -112.692034 65 29156ft 444kts
02-Dec-17 16:43 36.560784 -112.553532 65 29157ft 444kts
02-Dec-17 16:44 36.611367 -112.415217 65 29193ft 444kts
02-Dec-17 16:45 36.661380 -112.277650 66 29227ft 443kts
02-Dec-17 16:46 36.711104 -112.140105 66 29202ft 443kts
02-Dec-17 16:47 36.761199 -112.001136 66 29168ft 442kts
02-Dec-17 16:48 36.811009 -111.862392 66 29148ft 443kts
02-Dec-17 16:49 36.860614 -111.723576 65 29144ft 443kts
02-Dec-17 16:50 36.910649 -111.582952 65 29141ft 445kts
02-Dec-17 16:51 36.960238 -111.442918 65 29139ft 445kts
02-Dec-17 16:52 37.009807 -111.302158 66 29123ft 451kts
02-Dec-17 16:53 37.060019 -111.158899 65 29140ft 457kts
02-Dec-17 16:54 37.110410 -111.014768 65 29120ft 462kts
02-Dec-17 16:55 37.161618 -110.867997 65 29142ft 461kts
02-Dec-17 16:56 37.212157 -110.721842 65 29139ft 461kts
02-Dec-17 16:57 37.262584 -110.575292 65 29157ft 461kts
02-Dec-17 16:58 37.312964 -110.428160 65 29244ft 461kts
02-Dec-17 16:59 37.362210 -110.283432 66 29272ft 461kts
02-Dec-17 17:00 37.412462 -110.135128 66 29277ft 461kts
02-Dec-17 17:01 37.462145 -109.987859 66 29277ft 461kts
02-Dec-17 17:02 37.511858 -109.839789 66 29277ft 461kts
02-Dec-17 17:03 37.561277 -109.691859 66 29276ft 461kts
02-Dec-17 17:04 37.610286 -109.544415 66 29277ft 461kts
02-Dec-17 17:05 37.659557 -109.395425 66 29276ft 461kts
02-Dec-17 17:06 37.707757 -109.248682 67 29276ft 461kts
02-Dec-17 17:07 37.756203 -109.100668 67 29275ft 461kts
02-Dec-17 17:08 37.804261 -108.953104 67 29267ft 460kts
02-Dec-17 17:09 37.865965 -108.814188 57 29236ft 455kts
02-Dec-17 17:10 37.932027 -108.679442 57 29230ft 456kts
02-Dec-17 17:11 37.997369 -108.545320 57 29230ft 456kts
02-Dec-17 17:12 38.063485 -108.409049 57 29244ft 455kts
02-Dec-17 17:13 38.124364 -108.283183 57 29269ft 455kts
02-Dec-17 17:14 38.190222 -108.146527 57 29257ft 456kts
02-Dec-17 17:15 38.255632 -108.010053 58 29186ft 458kts
02-Dec-17 17:16 38.324395 -107.865964 58 29147ft 504kts
02-Dec-17 17:17 38.397067 -107.712958 58 29189ft 512kts
02-Dec-17 17:18 38.469079 -107.557898 60 29185ft 512kts
02-Dec-17 17:19 38.538775 -107.401351 59 29201ft 511kts
02-Dec-17 17:20 38.608032 -107.246586 60 29230ft 511kts
02-Dec-17 17:21 38.677312 -107.091211 60 29231ft 511kts
02-Dec-17 17:22 38.747229 -106.933643 60 29229ft 512kts
02-Dec-17 17:23 38.817069 -106.775465 60 29222ft 514kts
02-Dec-17 17:24 38.887099 -106.617542 58 29246ft 514kts
02-Dec-17 17:25 38.959766 -106.460589 57 29262ft 517kts
02-Dec-17 17:26 39.029835 -106.307941 58 29240ft 519kts
02-Dec-17 17:27 39.101366 -106.149812 58 28696ft 520kts
02-Dec-17 17:28 39.171186 -105.992715 59 26505ft 501kts
02-Dec-17 17:29 39.233557 -105.851442 59 24433ft 469kts
02-Dec-17 17:30 39.290419 -105.722095 59 22429ft 444kts
02-Dec-17 17:31 39.349215 -105.587106 60 20237ft 423kts
02-Dec-17 17:32 39.404479 -105.463772 55 18565ft 377kts
02-Dec-17 17:33 39.460309 -105.358459 55 17171ft 352kts
02-Dec-17 17:34 39.513259 -105.257488 56 15772ft 340kts
02-Dec-17 17:35 39.564256 -105.160083 56 14807ft 336kts
02-Dec-17 17:36 39.613470 -105.065965 56 13385ft 323kts
02-Dec-17 17:37 39.659131 -104.978236 56 12986ft 319kts
02-Dec-17 17:38 39.705808 -104.887709 56 13002ft 320kts
02-Dec-17 17:39 39.777749 -104.839972 358 12201ft 311kts
02-Dec-17 17:40 39.860248 -104.839711 359 11001ft 298kts
02-Dec-17 17:41 39.934738 -104.839210 358 10999ft 259kts
02-Dec-17 17:42 40.006509 -104.840007 357 9346ft 267kts
02-Dec-17 17:43 40.064278 -104.799725 76 7760ft 259kts
02-Dec-17 17:44 40.055757 -104.718004 136 6981ft 224kts
02-Dec-17 17:45 40.009239 -104.683266 179 7015ft 190kts
02-Dec-17 17:46 39.964794 -104.686324 179 6929ft 148kts
02-Dec-17 17:47 39.926116 -104.686631 179 6007ft 144kts
02-Dec-17 17:48 39.889398 -104.686864 180 5363ft 76kts
02-Dec-17 17:49 39.877747 -104.686527 160 5328ft 25kts
02-Dec-17 17:50 39.874940 -104.684299 98 5349ft 3kts
02-Dec-17 17:51 39.873755 -104.683752 180 5355ft 11kts
02-Dec-17 17:52 39.870368 -104.683778 180 5355ft 17kts
02-Dec-17 17:53 39.864988 -104.683773 179 5327ft 23kts
02-Dec-17 17:54 39.859123 -104.683847 180 5332ft 15kts
02-Dec-17 17:55 39.855934 -104.682816 78 5336ft 10kts
02-Dec-17 17:56 39.855937 -104.679026 90 5362ft 12kts
02-Dec-17 17:57 39.854809 -104.676572 176 5378ft 8kts
02-Dec-17 17:58 39.854309 -104.676591 183 5376ft 0kts
02-Dec-17 17:59 39.854309 -104.676591 183 5376ft 0kts

Navigation Log

Ident Type
Flight plan parsing failed, navigation log unavailable